1864 NOT_NAMED (1864112S09075)


IBTrACS version v04r00. Visit IBTrACS website for data access.
Please direct all questions to the IBTrACS Q and A forum

Storm track - Intensity - Wind Radii - Intensity Data - Source Data - All data

Summary Information

Storm ID 1864112S09075
Start Apr 21 06Z
End Apr 29 06Z
ATCF IDs
Track status Best track data.

Storm track plot

Map of storm track

Intensity plots

No Intensity information for this storm


Radial wind information

No radial wind information for this storm


Position and Intensity Table

BASIN ISO_TIME_________ NATURE LAT LON
degrees north degrees east
SI 1864-04-21 06:00:00 NR -9.30 75.30
SI 09:00:00 NR -9.42 75.04
SI 12:00:00 NR -9.54 74.77
SI 15:00:00 NR -9.67 74.50
SI 18:00:00 NR -9.80 74.22
SI 21:00:00 NR -9.94 73.94
SI 1864-04-22 00:00:00 NR -10.08 73.64
SI 03:00:00 NR -10.24 73.33
SI 06:00:00 NR -10.40 73.00
SI 09:00:00 NR -10.58 72.66
SI 12:00:00 NR -10.77 72.29
SI 15:00:00 NR -10.97 71.92
SI 18:00:00 NR -11.17 71.53
SI 21:00:00 NR -11.39 71.13
SI 1864-04-23 00:00:00 NR -11.62 70.73
SI 03:00:00 NR -11.86 70.32
SI 06:00:00 NR -12.10 69.90
SI 09:00:00 NR -12.35 69.47
SI 12:00:00 NR -12.61 69.04
SI 15:00:00 NR -12.87 68.60
SI 18:00:00 NR -13.14 68.16
SI 21:00:00 NR -13.41 67.72
SI 1864-04-24 00:00:00 NR -13.68 67.30
SI 03:00:00 NR -13.94 66.89
SI 06:00:00 NR -14.20 66.50
SI 09:00:00 NR -14.43 66.15
SI 12:00:00 NR -14.65 65.81
SI 15:00:00 NR -14.86 65.49
SI 18:00:00 NR -15.08 65.19
SI 21:00:00 NR -15.29 64.89
SI 1864-04-25 00:00:00 NR -15.52 64.59
SI 03:00:00 NR -15.75 64.30
SI 06:00:00 NR -16.00 64.00
SI 09:00:00 NR -16.29 63.65
SI 12:00:00 NR -16.60 63.29
SI 15:00:00 NR -16.92 62.93
SI 18:00:00 NR -17.24 62.58
SI 21:00:00 NR -17.55 62.25
SI 1864-04-26 00:00:00 NR -17.86 61.93
SI 03:00:00 NR -18.14 61.65
SI 06:00:00 NR -18.40 61.40
SI 09:00:00 NR -18.60 61.20
SI 12:00:00 NR -18.77 61.04
SI 15:00:00 NR -18.93 60.91
SI 18:00:00 NR -19.08 60.80
SI 21:00:00 NR -19.22 60.72
SI 1864-04-27 00:00:00 NR -19.37 60.64
SI 03:00:00 NR -19.53 60.57
SI 06:00:00 NR -19.70 60.50
SI 09:00:00 NR -19.93 60.39
SI 12:00:00 NR -20.17 60.28
SI 15:00:00 NR -20.43 60.17
SI 18:00:00 NR -20.69 60.08
SI 21:00:00 NR -20.96 59.99
SI 1864-04-28 00:00:00 NR -21.21 59.91
SI 03:00:00 NR -21.46 59.85
SI 06:00:00 NR -21.70 59.80
SI 09:00:00 NR -21.92 59.77
SI 12:00:00 NR -22.12 59.76
SI 15:00:00 NR -22.30 59.76
SI 18:00:00 NR -22.48 59.77
SI 21:00:00 NR -22.64 59.80
SI 1864-04-29 00:00:00 NR -22.80 59.83
SI 03:00:00 NR -22.95 59.86
SI 06:00:00 NR -23.10 59.90

Source Information

Agency Information
USA
TOKYO
CMA
HKO
NEWDELHI
REUNION WMO-Best-Tracks.txt:Line=582:xxxx864083
BOM
NADI
WELLINGTON
DS824
TD9636
TD9635
NEUMANN
MLC

All available IBTrACS Data

SEASON BASIN SUBBASIN ISO_TIME_________ NATURE LAT LON WMO AGENCY DIST2LAND LANDFALL IFLAG USA SSHS REUNION LAT REUNION LON REUNION TYPE REUNION TNUM STORM SPEED STORM DIR
Year degrees north degrees east km km 1 degrees north degrees east 1 kts degrees
1864 SI MM 1864-04-21 06:00:00 NR -9.30 75.30 reunion 1801 1801 _____O________ -1 -9.30 75.30 99 9.90 6 245
1864 SI MM 09:00:00 NR -9.42 75.04 1823 1823 _____P________ -1 -9.42 75.04 99 6 245
1864 SI MM 12:00:00 NR -9.54 74.77 1840 1840 _____P________ -1 -9.54 74.77 99 6 245
1864 SI MM 15:00:00 NR -9.67 74.50 1873 1873 _____P________ -1 -9.67 74.50 99 6 245
1864 SI MM 18:00:00 NR -9.80 74.22 1895 1895 _____P________ -1 -9.80 74.22 99 6 244
1864 SI MM 21:00:00 NR -9.94 73.94 1917 1917 _____P________ -1 -9.94 73.94 99 6 244
1864 SI MM 1864-04-22 00:00:00 NR -10.08 73.64 1950 1950 _____P________ -1 -10.08 73.64 99 7 244
1864 SI MM 03:00:00 NR -10.24 73.33 1974 1966 _____P________ -1 -10.24 73.33 99 7 243
1864 SI MM 06:00:00 NR -10.40 73.00 reunion 1966 1926 _____O________ -1 -10.40 73.00 99 9.90 7 243
1864 SI MM 09:00:00 NR -10.58 72.66 1926 1877 _____P________ -1 -10.58 72.66 99 8 242
1864 SI MM 12:00:00 NR -10.77 72.29 1877 1829 _____P________ -1 -10.77 72.29 99 8 242
1864 SI MM 15:00:00 NR -10.97 71.92 1829 1789 _____P________ -1 -10.97 71.92 99 9 241
1864 SI MM 18:00:00 NR -11.17 71.53 1780 1741 _____P________ -1 -11.17 71.53 99 9 241
1864 SI MM 21:00:00 NR -11.39 71.13 1732 1692 _____P________ -1 -11.39 71.13 99 9 240
1864 SI MM 1864-04-23 00:00:00 NR -11.62 70.73 1683 1635 _____P________ -1 -11.62 70.73 99 9 240
1864 SI MM 03:00:00 NR -11.86 70.32 1628 1580 _____P________ -1 -11.86 70.32 99 9 239
1864 SI MM 06:00:00 NR -12.10 69.90 reunion 1580 1532 _____O________ -1 -12.10 69.90 99 9.90 10 239
1864 SI MM 09:00:00 NR -12.35 69.47 1532 1477 _____P________ -1 -12.35 69.47 99 10 239
1864 SI MM 12:00:00 NR -12.61 69.04 1468 1413 _____P________ -1 -12.61 69.04 99 10 239
1864 SI MM 15:00:00 NR -12.87 68.60 1413 1365 _____P________ -1 -12.87 68.60 99 10 238
1864 SI MM 18:00:00 NR -13.14 68.16 1365 1301 _____P________ -1 -13.14 68.16 99 10 238
1864 SI MM 21:00:00 NR -13.41 67.72 1301 1247 _____P________ -1 -13.41 67.72 99 10 237
1864 SI MM 1864-04-24 00:00:00 NR -13.68 67.30 1247 1198 _____P________ -1 -13.68 67.30 99 10 237
1864 SI MM 03:00:00 NR -13.94 66.89 1198 1144 _____P________ -1 -13.94 66.89 99 9 236
1864 SI MM 06:00:00 NR -14.20 66.50 reunion 1144 1104 _____O________ -1 -14.20 66.50 99 9.90 9 236
1864 SI MM 09:00:00 NR -14.43 66.15 1096 1057 _____P________ -1 -14.43 66.15 99 8 236
1864 SI MM 12:00:00 NR -14.65 65.81 1057 1017 _____P________ -1 -14.65 65.81 99 8 235
1864 SI MM 15:00:00 NR -14.86 65.49 1011 971 _____P________ -1 -14.86 65.49 99 7 235
1864 SI MM 18:00:00 NR -15.08 65.19 971 932 _____P________ -1 -15.08 65.19 99 7 234
1864 SI MM 21:00:00 NR -15.29 64.89 932 893 _____P________ -1 -15.29 64.89 99 7 232
1864 SI MM 1864-04-25 00:00:00 NR -15.52 64.59 893 854 _____P________ -1 -15.52 64.59 99 7 231
1864 SI MM 03:00:00 NR -15.75 64.30 847 808 _____P________ -1 -15.75 64.30 99 8 230
1864 SI MM 06:00:00 NR -16.00 64.00 reunion 808 763 _____O________ -1 -16.00 64.00 99 9.90 8 229
1864 SI MM 09:00:00 NR -16.29 63.65 754 708 _____P________ -1 -16.29 63.65 99 9 229
1864 SI MM 12:00:00 NR -16.60 63.29 708 663 _____P________ -1 -16.60 63.29 99 9 228
1864 SI MM 15:00:00 NR -16.92 62.93 654 609 _____P________ -1 -16.92 62.93 99 9 227
1864 SI MM 18:00:00 NR -17.24 62.58 609 564 _____P________ -1 -17.24 62.58 99 9 226
1864 SI MM 21:00:00 NR -17.55 62.25 549 520 _____P________ -1 -17.55 62.25 99 9 225
1864 SI MM 1864-04-26 00:00:00 NR -17.86 61.93 505 476 _____P________ -1 -17.86 61.93 99 8 224
1864 SI MM 03:00:00 NR -18.14 61.65 466 432 _____P________ -1 -18.14 61.65 99 7 223
1864 SI MM 06:00:00 NR -18.40 61.40 reunion 432 403 _____O________ -1 -18.40 61.40 99 9.90 6 223
1864 SI MM 09:00:00 NR -18.60 61.20 403 384 _____P________ -1 -18.60 61.20 99 5 222
1864 SI MM 12:00:00 NR -18.77 61.04 374 360 _____P________ -1 -18.77 61.04 99 4 220
1864 SI MM 15:00:00 NR -18.93 60.91 360 341 _____P________ -1 -18.93 60.91 99 4 216
1864 SI MM 18:00:00 NR -19.08 60.80 341 327 _____P________ -1 -19.08 60.80 99 3 213
1864 SI MM 21:00:00 NR -19.22 60.72 327 309 _____P________ -1 -19.22 60.72 99 3 208
1864 SI MM 1864-04-27 00:00:00 NR -19.37 60.64 309 306 _____P________ -1 -19.37 60.64 99 3 204
1864 SI MM 03:00:00 NR -19.53 60.57 306 289 _____P________ -1 -19.53 60.57 99 4 201
1864 SI MM 06:00:00 NR -19.70 60.50 reunion 289 275 _____O________ -1 -19.70 60.50 99 9.90 4 203
1864 SI MM 09:00:00 NR -19.93 60.39 275 261 _____P________ -1 -19.93 60.39 99 5 204
1864 SI MM 12:00:00 NR -20.17 60.28 261 250 _____P________ -1 -20.17 60.28 99 5 202
1864 SI MM 15:00:00 NR -20.43 60.17 250 240 _____P________ -1 -20.43 60.17 99 6 200
1864 SI MM 18:00:00 NR -20.69 60.08 243 235 _____P________ -1 -20.69 60.08 99 6 198
1864 SI MM 21:00:00 NR -20.96 59.99 241 236 _____P________ -1 -20.96 59.99 99 5 196
1864 SI MM 1864-04-28 00:00:00 NR -21.21 59.91 240 240 _____P________ -1 -21.21 59.91 99 5 194
1864 SI MM 03:00:00 NR -21.46 59.85 244 244 _____P________ -1 -21.46 59.85 99 5 192
1864 SI MM 06:00:00 NR -21.70 59.80 reunion 255 255 _____O________ -1 -21.70 59.80 99 9.90 5 189
1864 SI MM 09:00:00 NR -21.92 59.77 268 268 _____P________ -1 -21.92 59.77 99 4 184
1864 SI MM 12:00:00 NR -22.12 59.76 281 281 _____P________ -1 -22.12 59.76 99 4 0
1864 SI MM 15:00:00 NR -22.30 59.76 296 296 _____P________ -1 -22.30 59.76 99 4 176
1864 SI MM 18:00:00 NR -22.48 59.77 311 311 _____P________ -1 -22.48 59.77 99 3 173
1864 SI MM 21:00:00 NR -22.64 59.80 319 319 _____P________ -1 -22.64 59.80 99 3 170
1864 SI MM 1864-04-29 00:00:00 NR -22.80 59.83 336 336 _____P________ -1 -22.80 59.83 99 3 170
1864 SI MM 03:00:00 NR -22.95 59.86 360 360 _____P________ -1 -22.95 59.86 99 3 167
1864 SI MM 06:00:00 NR -23.10 59.90 reunion 368 _____O________ -1 -23.10 59.90 99 9.90 3 167